sensor_id;sensor_type;location;lat;lon;timestamp;P1;durP1;ratioP1;P2;durP2;ratioP2
48516;SDS011;34310;51.904;4.256;2024-01-30T00:02:24;6.43;;;5.72;;
48516;SDS011;34310;51.904;4.256;2024-01-30T00:04:50;6.43;;;5.43;;
48516;SDS011;34310;51.904;4.256;2024-01-30T00:07:17;6.25;;;5.63;;
48516;SDS011;34310;51.904;4.256;2024-01-30T00:09:46;6.03;;;5.28;;
48516;SDS011;34310;51.904;4.256;2024-01-30T00:12:13;5.93;;;5.20;;
48516;SDS011;34310;51.904;4.256;2024-01-30T00:14:41;5.95;;;5.10;;
48516;SDS011;34310;51.904;4.256;2024-01-30T00:17:08;7.30;;;5.50;;
48516;SDS011;34310;51.904;4.256;2024-01-30T00:19:35;6.53;;;5.25;;
48516;SDS011;34310;51.904;4.256;2024-01-30T00:22:01;5.68;;;4.97;;
48516;SDS011;34310;51.904;4.256;2024-01-30T00:24:28;5.68;;;5.07;;
48516;SDS011;34310;51.904;4.256;2024-01-30T00:26:55;5.63;;;5.03;;
48516;SDS011;34310;51.904;4.256;2024-01-30T00:29:21;6.22;;;4.80;;
48516;SDS011;34310;51.904;4.256;2024-01-30T00:31:48;6.10;;;5.18;;
48516;SDS011;34310;51.904;4.256;2024-01-30T00:34:14;5.97;;;5.13;;
48516;SDS011;34310;51.904;4.256;2024-01-30T00:36:41;5.93;;;4.85;;
48516;SDS011;34310;51.904;4.256;2024-01-30T00:39:08;5.50;;;4.90;;
48516;SDS011;34310;51.904;4.256;2024-01-30T00:41:34;6.40;;;5.22;;
48516;SDS011;34310;51.904;4.256;2024-01-30T00:44:01;7.28;;;4.90;;
48516;SDS011;34310;51.904;4.256;2024-01-30T00:46:28;5.80;;;4.80;;
48516;SDS011;34310;51.904;4.256;2024-01-30T00:48:54;6.20;;;4.85;;
48516;SDS011;34310;51.904;4.256;2024-01-30T00:51:21;5.18;;;4.68;;
48516;SDS011;34310;51.904;4.256;2024-01-30T00:53:47;5.40;;;4.50;;
48516;SDS011;34310;51.904;4.256;2024-01-30T00:56:14;5.18;;;4.60;;
48516;SDS011;34310;51.904;4.256;2024-01-30T00:58:41;4.90;;;4.32;;
48516;SDS011;34310;51.904;4.256;2024-01-30T01:01:07;6.10;;;4.65;;
48516;SDS011;34310;51.904;4.256;2024-01-30T01:03:34;5.70;;;4.90;;
48516;SDS011;34310;51.904;4.256;2024-01-30T01:06:01;5.60;;;5.00;;
48516;SDS011;34310;51.904;4.256;2024-01-30T01:08:27;6.20;;;4.68;;
48516;SDS011;34310;51.904;4.256;2024-01-30T01:10:54;6.60;;;4.38;;
48516;SDS011;34310;51.904;4.256;2024-01-30T01:13:20;5.05;;;4.55;;
48516;SDS011;34310;51.904;4.256;2024-01-30T01:15:47;4.85;;;4.20;;
48516;SDS011;34310;51.904;4.256;2024-01-30T01:18:14;4.82;;;4.10;;
48516;SDS011;34310;51.904;4.256;2024-01-30T01:20:40;4.65;;;4.25;;
48516;SDS011;34310;51.904;4.256;2024-01-30T01:23:07;5.43;;;4.60;;
48516;SDS011;34310;51.904;4.256;2024-01-30T01:25:33;4.88;;;4.30;;
48516;SDS011;34310;51.904;4.256;2024-01-30T01:28:00;4.65;;;4.15;;
48516;SDS011;34310;51.904;4.256;2024-01-30T01:30:26;5.03;;;4.40;;
48516;SDS011;34310;51.904;4.256;2024-01-30T01:32:53;5.50;;;4.20;;
48516;SDS011;34310;51.904;4.256;2024-01-30T01:35:21;5.70;;;4.38;;
48516;SDS011;34310;51.904;4.256;2024-01-30T01:37:48;4.57;;;4.10;;
48516;SDS011;34310;51.904;4.256;2024-01-30T01:40:14;6.03;;;4.60;;
48516;SDS011;34310;51.904;4.256;2024-01-30T01:42:41;4.82;;;4.32;;
48516;SDS011;34310;51.904;4.256;2024-01-30T01:45:08;5.00;;;4.50;;
48516;SDS011;34310;51.904;4.256;2024-01-30T01:47:35;5.13;;;3.95;;
48516;SDS011;34310;51.904;4.256;2024-01-30T01:50:01;5.85;;;4.47;;
48516;SDS011;34310;51.904;4.256;2024-01-30T01:52:29;4.72;;;3.72;;
48516;SDS011;34310;51.904;4.256;2024-01-30T01:54:55;4.43;;;4.03;;
48516;SDS011;34310;51.904;4.256;2024-01-30T01:57:22;6.13;;;4.32;;
48516;SDS011;34310;51.904;4.256;2024-01-30T01:59:49;4.72;;;4.22;;
48516;SDS011;34310;51.904;4.256;2024-01-30T02:02:15;5.13;;;4.10;;
48516;SDS011;34310;51.904;4.256;2024-01-30T02:04:45;4.63;;;4.20;;
48516;SDS011;34310;51.904;4.256;2024-01-30T02:07:12;4.75;;;4.00;;
48516;SDS011;34310;51.904;4.256;2024-01-30T02:09:39;4.03;;;3.63;;
48516;SDS011;34310;51.904;4.256;2024-01-30T02:12:06;4.45;;;3.60;;
48516;SDS011;34310;51.904;4.256;2024-01-30T02:14:32;4.85;;;4.20;;
48516;SDS011;34310;51.904;4.256;2024-01-30T02:16:59;4.63;;;4.03;;
48516;SDS011;34310;51.904;4.256;2024-01-30T02:19:26;4.60;;;4.00;;
48516;SDS011;34310;51.904;4.256;2024-01-30T02:21:52;4.18;;;3.65;;
48516;SDS011;34310;51.904;4.256;2024-01-30T02:24:19;4.57;;;3.72;;
48516;SDS011;34310;51.904;4.256;2024-01-30T02:26:46;3.75;;;3.35;;
48516;SDS011;34310;51.904;4.256;2024-01-30T02:29:12;4.35;;;3.90;;
48516;SDS011;34310;51.904;4.256;2024-01-30T02:31:39;4.55;;;4.13;;
48516;SDS011;34310;51.904;4.256;2024-01-30T02:34:06;5.00;;;3.80;;
48516;SDS011;34310;51.904;4.256;2024-01-30T02:36:32;4.90;;;4.10;;
48516;SDS011;34310;51.904;4.256;2024-01-30T02:38:59;4.45;;;3.70;;
48516;SDS011;34310;51.904;4.256;2024-01-30T02:41:25;4.70;;;3.60;;
48516;SDS011;34310;51.904;4.256;2024-01-30T02:43:52;5.75;;;4.05;;
48516;SDS011;34310;51.904;4.256;2024-01-30T02:46:18;4.55;;;3.65;;
48516;SDS011;34310;51.904;4.256;2024-01-30T02:48:45;4.22;;;3.80;;
48516;SDS011;34310;51.904;4.256;2024-01-30T02:51:12;4.40;;;4.00;;
48516;SDS011;34310;51.904;4.256;2024-01-30T02:53:38;3.67;;;3.30;;
48516;SDS011;34310;51.904;4.256;2024-01-30T02:56:05;4.00;;;3.60;;
48516;SDS011;34310;51.904;4.256;2024-01-30T02:58:32;3.92;;;3.40;;
48516;SDS011;34310;51.904;4.256;2024-01-30T03:00:58;4.07;;;3.67;;
48516;SDS011;34310;51.904;4.256;2024-01-30T03:03:25;4.20;;;3.80;;
48516;SDS011;34310;51.904;4.256;2024-01-30T03:05:52;4.47;;;3.70;;
48516;SDS011;34310;51.904;4.256;2024-01-30T03:08:18;4.57;;;3.72;;
48516;SDS011;34310;51.904;4.256;2024-01-30T03:10:45;4.40;;;3.38;;
48516;SDS011;34310;51.904;4.256;2024-01-30T03:13:12;4.10;;;3.50;;
48516;SDS011;34310;51.904;4.256;2024-01-30T03:15:38;3.88;;;3.45;;
48516;SDS011;34310;51.904;4.256;2024-01-30T03:18:05;4.35;;;3.60;;
48516;SDS011;34310;51.904;4.256;2024-01-30T03:20:32;4.07;;;3.70;;
48516;SDS011;34310;51.904;4.256;2024-01-30T03:22:59;6.00;;;3.58;;
48516;SDS011;34310;51.904;4.256;2024-01-30T03:25:26;3.72;;;3.28;;
48516;SDS011;34310;51.904;4.256;2024-01-30T03:27:53;4.15;;;3.75;;
48516;SDS011;34310;51.904;4.256;2024-01-30T03:30:20;3.72;;;3.33;;
48516;SDS011;34310;51.904;4.256;2024-01-30T03:32:46;3.75;;;3.30;;
48516;SDS011;34310;51.904;4.256;2024-01-30T03:35:13;3.92;;;3.42;;
48516;SDS011;34310;51.904;4.256;2024-01-30T03:37:39;3.50;;;3.20;;
48516;SDS011;34310;51.904;4.256;2024-01-30T03:40:06;5.47;;;3.60;;
48516;SDS011;34310;51.904;4.256;2024-01-30T03:42:33;4.65;;;4.10;;
48516;SDS011;34310;51.904;4.256;2024-01-30T03:45:00;3.45;;;3.15;;
48516;SDS011;34310;51.904;4.256;2024-01-30T03:47:26;4.15;;;3.47;;
48516;SDS011;34310;51.904;4.256;2024-01-30T03:49:53;3.88;;;3.47;;
48516;SDS011;34310;51.904;4.256;2024-01-30T03:52:20;3.70;;;3.33;;
48516;SDS011;34310;51.904;4.256;2024-01-30T03:54:46;4.78;;;3.50;;
48516;SDS011;34310;51.904;4.256;2024-01-30T03:57:13;3.85;;;3.10;;
48516;SDS011;34310;51.904;4.256;2024-01-30T03:59:41;3.65;;;3.30;;
48516;SDS011;34310;51.904;4.256;2024-01-30T04:02:09;4.05;;;3.50;;
48516;SDS011;34310;51.904;4.256;2024-01-30T04:04:37;3.47;;;3.17;;
48516;SDS011;34310;51.904;4.256;2024-01-30T04:07:04;3.38;;;3.08;;
48516;SDS011;34310;51.904;4.256;2024-01-30T04:09:30;3.50;;;3.20;;
48516;SDS011;34310;51.904;4.256;2024-01-30T04:11:57;3.85;;;3.28;;
48516;SDS011;34310;51.904;4.256;2024-01-30T04:14:23;4.82;;;3.50;;
48516;SDS011;34310;51.904;4.256;2024-01-30T04:16:50;3.85;;;3.20;;
48516;SDS011;34310;51.904;4.256;2024-01-30T04:19:16;3.50;;;3.20;;
48516;SDS011;34310;51.904;4.256;2024-01-30T04:21:43;3.47;;;3.17;;
48516;SDS011;34310;51.904;4.256;2024-01-30T04:24:10;4.38;;;3.35;;
48516;SDS011;34310;51.904;4.256;2024-01-30T04:26:36;4.43;;;3.40;;
48516;SDS011;34310;51.904;4.256;2024-01-30T04:29:03;4.22;;;3.15;;
48516;SDS011;34310;51.904;4.256;2024-01-30T04:31:30;4.35;;;3.40;;
48516;SDS011;34310;51.904;4.256;2024-01-30T04:33:56;3.17;;;2.88;;
48516;SDS011;34310;51.904;4.256;2024-01-30T04:36:23;4.47;;;3.22;;
48516;SDS011;34310;51.904;4.256;2024-01-30T04:38:50;3.67;;;3.38;;
48516;SDS011;34310;51.904;4.256;2024-01-30T04:41:16;3.60;;;3.30;;
48516;SDS011;34310;51.904;4.256;2024-01-30T04:43:43;3.88;;;3.30;;
48516;SDS011;34310;51.904;4.256;2024-01-30T04:46:09;3.60;;;3.15;;
48516;SDS011;34310;51.904;4.256;2024-01-30T04:48:36;3.83;;;3.17;;
48516;SDS011;34310;51.904;4.256;2024-01-30T04:51:03;4.20;;;3.50;;
48516;SDS011;34310;51.904;4.256;2024-01-30T04:53:30;3.72;;;3.38;;
48516;SDS011;34310;51.904;4.256;2024-01-30T04:55:57;4.78;;;3.25;;
48516;SDS011;34310;51.904;4.256;2024-01-30T04:58:23;3.45;;;3.05;;
48516;SDS011;34310;51.904;4.256;2024-01-30T05:00:50;3.65;;;3.30;;
48516;SDS011;34310;51.904;4.256;2024-01-30T05:03:17;3.65;;;3.28;;
48516;SDS011;34310;51.904;4.256;2024-01-30T05:05:45;3.90;;;3.03;;
48516;SDS011;34310;51.904;4.256;2024-01-30T05:08:12;4.78;;;3.30;;
48516;SDS011;34310;51.904;4.256;2024-01-30T05:10:38;3.65;;;3.03;;
48516;SDS011;34310;51.904;4.256;2024-01-30T05:13:05;4.63;;;3.45;;
48516;SDS011;34310;51.904;4.256;2024-01-30T05:15:31;4.07;;;3.20;;
48516;SDS011;34310;51.904;4.256;2024-01-30T05:17:58;4.13;;;3.08;;
48516;SDS011;34310;51.904;4.256;2024-01-30T05:20:25;4.95;;;3.22;;
48516;SDS011;34310;51.904;4.256;2024-01-30T05:22:51;3.55;;;3.20;;
48516;SDS011;34310;51.904;4.256;2024-01-30T05:25:18;3.45;;;3.10;;
48516;SDS011;34310;51.904;4.256;2024-01-30T05:27:44;3.88;;;2.90;;
48516;SDS011;34310;51.904;4.256;2024-01-30T05:30:11;3.78;;;3.20;;
48516;SDS011;34310;51.904;4.256;2024-01-30T05:32:38;5.20;;;3.40;;
48516;SDS011;34310;51.904;4.256;2024-01-30T05:35:05;4.88;;;3.17;;
48516;SDS011;34310;51.904;4.256;2024-01-30T05:37:31;5.32;;;3.20;;
48516;SDS011;34310;51.904;4.256;2024-01-30T05:39:58;3.40;;;2.92;;
48516;SDS011;34310;51.904;4.256;2024-01-30T05:42:25;3.78;;;3.13;;
48516;SDS011;34310;51.904;4.256;2024-01-30T05:44:53;3.90;;;3.10;;
48516;SDS011;34310;51.904;4.256;2024-01-30T05:47:19;3.58;;;3.08;;
48516;SDS011;34310;51.904;4.256;2024-01-30T05:49:46;3.95;;;3.00;;
48516;SDS011;34310;51.904;4.256;2024-01-30T05:52:13;4.13;;;2.78;;
48516;SDS011;34310;51.904;4.256;2024-01-30T05:54:39;3.78;;;3.03;;
48516;SDS011;34310;51.904;4.256;2024-01-30T05:57:06;4.25;;;3.22;;
48516;SDS011;34310;51.904;4.256;2024-01-30T05:59:32;4.07;;;3.20;;
48516;SDS011;34310;51.904;4.256;2024-01-30T06:01:59;3.25;;;2.83;;
48516;SDS011;34310;51.904;4.256;2024-01-30T06:04:26;3.33;;;2.95;;
48516;SDS011;34310;51.904;4.256;2024-01-30T06:06:52;3.80;;;3.25;;
48516;SDS011;34310;51.904;4.256;2024-01-30T06:09:19;3.95;;;3.10;;
48516;SDS011;34310;51.904;4.256;2024-01-30T06:11:46;3.85;;;3.28;;
48516;SDS011;34310;51.904;4.256;2024-01-30T06:14:12;4.43;;;3.60;;
48516;SDS011;34310;51.904;4.256;2024-01-30T06:16:39;3.78;;;3.17;;
48516;SDS011;34310;51.904;4.256;2024-01-30T06:19:06;4.18;;;3.53;;
48516;SDS011;34310;51.904;4.256;2024-01-30T06:21:32;4.95;;;3.50;;
48516;SDS011;34310;51.904;4.256;2024-01-30T06:23:59;5.28;;;3.67;;
48516;SDS011;34310;51.904;4.256;2024-01-30T06:26:25;4.15;;;3.75;;
48516;SDS011;34310;51.904;4.256;2024-01-30T06:28:52;4.70;;;3.80;;
48516;SDS011;34310;51.904;4.256;2024-01-30T06:31:18;4.22;;;3.83;;
48516;SDS011;34310;51.904;4.256;2024-01-30T06:33:48;4.30;;;3.83;;
48516;SDS011;34310;51.904;4.256;2024-01-30T06:36:16;5.97;;;4.40;;
48516;SDS011;34310;51.904;4.256;2024-01-30T06:38:42;4.45;;;4.00;;
48516;SDS011;34310;51.904;4.256;2024-01-30T06:41:09;5.60;;;4.45;;
48516;SDS011;34310;51.904;4.256;2024-01-30T06:43:35;5.18;;;3.97;;
48516;SDS011;34310;51.904;4.256;2024-01-30T06:46:02;6.03;;;4.63;;
48516;SDS011;34310;51.904;4.256;2024-01-30T06:48:28;5.63;;;4.80;;
48516;SDS011;34310;51.904;4.256;2024-01-30T06:50:56;7.97;;;5.22;;
48516;SDS011;34310;51.904;4.256;2024-01-30T06:53:23;7.47;;;6.32;;
48516;SDS011;34310;51.904;4.256;2024-01-30T06:55:49;8.50;;;6.35;;
48516;SDS011;34310;51.904;4.256;2024-01-30T06:58:17;7.43;;;6.35;;
48516;SDS011;34310;51.904;4.256;2024-01-30T07:00:44;7.95;;;6.68;;
48516;SDS011;34310;51.904;4.256;2024-01-30T07:03:11;8.80;;;6.50;;
48516;SDS011;34310;51.904;4.256;2024-01-30T07:05:37;9.05;;;6.30;;
48516;SDS011;34310;51.904;4.256;2024-01-30T07:08:04;9.60;;;6.88;;
48516;SDS011;34310;51.904;4.256;2024-01-30T07:10:30;8.23;;;6.88;;
48516;SDS011;34310;51.904;4.256;2024-01-30T07:12:57;9.32;;;7.38;;
48516;SDS011;34310;51.904;4.256;2024-01-30T07:15:24;9.68;;;7.60;;
48516;SDS011;34310;51.904;4.256;2024-01-30T07:17:50;9.25;;;7.38;;
48516;SDS011;34310;51.904;4.256;2024-01-30T07:20:17;9.10;;;7.72;;
48516;SDS011;34310;51.904;4.256;2024-01-30T07:22:44;10.50;;;8.02;;
48516;SDS011;34310;51.904;4.256;2024-01-30T07:25:11;10.27;;;7.97;;
48516;SDS011;34310;51.904;4.256;2024-01-30T07:27:37;9.73;;;8.10;;
48516;SDS011;34310;51.904;4.256;2024-01-30T07:30:04;11.00;;;8.77;;
48516;SDS011;34310;51.904;4.256;2024-01-30T07:32:31;10.15;;;8.32;;
48516;SDS011;34310;51.904;4.256;2024-01-30T07:34:58;11.45;;;8.48;;
48516;SDS011;34310;51.904;4.256;2024-01-30T07:37:34;12.10;;;8.73;;
48516;SDS011;34310;51.904;4.256;2024-01-30T07:40:01;12.73;;;9.38;;
48516;SDS011;34310;51.904;4.256;2024-01-30T07:42:28;11.63;;;8.73;;
48516;SDS011;34310;51.904;4.256;2024-01-30T07:44:55;13.20;;;9.93;;
48516;SDS011;34310;51.904;4.256;2024-01-30T07:47:21;12.90;;;9.82;;
48516;SDS011;34310;51.904;4.256;2024-01-30T07:49:48;16.55;;;11.45;;
48516;SDS011;34310;51.904;4.256;2024-01-30T07:52:15;16.73;;;12.60;;
48516;SDS011;34310;51.904;4.256;2024-01-30T07:54:48;15.68;;;12.15;;
48516;SDS011;34310;51.904;4.256;2024-01-30T07:57:14;18.75;;;12.90;;
48516;SDS011;34310;51.904;4.256;2024-01-30T07:59:44;19.25;;;13.85;;
48516;SDS011;34310;51.904;4.256;2024-01-30T08:02:11;20.42;;;14.75;;
48516;SDS011;34310;51.904;4.256;2024-01-30T08:04:41;19.35;;;14.23;;
48516;SDS011;34310;51.904;4.256;2024-01-30T08:07:08;20.35;;;14.50;;
48516;SDS011;34310;51.904;4.256;2024-01-30T08:09:35;19.65;;;14.30;;
48516;SDS011;34310;51.904;4.256;2024-01-30T08:12:02;20.25;;;15.18;;
48516;SDS011;34310;51.904;4.256;2024-01-30T08:14:28;19.80;;;14.30;;
48516;SDS011;34310;51.904;4.256;2024-01-30T08:16:58;21.23;;;15.40;;
48516;SDS011;34310;51.904;4.256;2024-01-30T08:19:24;20.10;;;15.25;;
48516;SDS011;34310;51.904;4.256;2024-01-30T08:21:51;21.50;;;16.17;;
48516;SDS011;34310;51.904;4.256;2024-01-30T08:24:18;20.42;;;15.38;;
48516;SDS011;34310;51.904;4.256;2024-01-30T08:26:44;23.08;;;15.40;;
48516;SDS011;34310;51.904;4.256;2024-01-30T08:29:11;21.30;;;15.85;;
48516;SDS011;34310;51.904;4.256;2024-01-30T08:31:37;22.23;;;15.98;;
48516;SDS011;34310;51.904;4.256;2024-01-30T08:34:04;19.65;;;14.60;;
48516;SDS011;34310;51.904;4.256;2024-01-30T08:36:31;22.70;;;16.25;;
48516;SDS011;34310;51.904;4.256;2024-01-30T08:38:57;22.65;;;16.23;;
48516;SDS011;34310;51.904;4.256;2024-01-30T08:41:29;20.38;;;14.90;;
48516;SDS011;34310;51.904;4.256;2024-01-30T08:43:56;21.58;;;15.75;;
48516;SDS011;34310;51.904;4.256;2024-01-30T08:46:23;21.50;;;15.88;;
48516;SDS011;34310;51.904;4.256;2024-01-30T08:48:50;21.13;;;15.40;;
48516;SDS011;34310;51.904;4.256;2024-01-30T08:51:17;19.27;;;15.00;;
48516;SDS011;34310;51.904;4.256;2024-01-30T08:53:43;20.42;;;15.40;;
48516;SDS011;34310;51.904;4.256;2024-01-30T08:56:10;19.40;;;14.95;;
48516;SDS011;34310;51.904;4.256;2024-01-30T08:58:36;19.80;;;15.10;;
48516;SDS011;34310;51.904;4.256;2024-01-30T09:01:03;20.58;;;14.68;;
48516;SDS011;34310;51.904;4.256;2024-01-30T09:03:30;20.67;;;15.13;;
48516;SDS011;34310;51.904;4.256;2024-01-30T09:05:56;19.67;;;15.10;;
48516;SDS011;34310;51.904;4.256;2024-01-30T09:08:23;20.48;;;15.07;;
48516;SDS011;34310;51.904;4.256;2024-01-30T09:10:50;20.00;;;14.98;;
48516;SDS011;34310;51.904;4.256;2024-01-30T09:13:16;17.60;;;13.55;;
48516;SDS011;34310;51.904;4.256;2024-01-30T09:15:43;18.45;;;14.30;;
48516;SDS011;34310;51.904;4.256;2024-01-30T09:18:09;18.38;;;13.40;;
48516;SDS011;34310;51.904;4.256;2024-01-30T09:20:36;18.83;;;13.88;;
48516;SDS011;34310;51.904;4.256;2024-01-30T09:23:03;19.20;;;13.52;;
48516;SDS011;34310;51.904;4.256;2024-01-30T09:25:29;20.15;;;13.85;;
48516;SDS011;34310;51.904;4.256;2024-01-30T09:27:56;16.67;;;12.98;;
48516;SDS011;34310;51.904;4.256;2024-01-30T09:30:23;17.63;;;12.77;;
48516;SDS011;34310;51.904;4.256;2024-01-30T09:32:49;16.90;;;13.02;;
48516;SDS011;34310;51.904;4.256;2024-01-30T09:35:16;15.88;;;12.60;;
48516;SDS011;34310;51.904;4.256;2024-01-30T09:37:43;15.27;;;12.13;;
48516;SDS011;34310;51.904;4.256;2024-01-30T09:40:09;18.63;;;13.20;;
48516;SDS011;34310;51.904;4.256;2024-01-30T09:42:36;17.88;;;12.45;;
48516;SDS011;34310;51.904;4.256;2024-01-30T09:45:04;18.02;;;12.35;;
48516;SDS011;34310;51.904;4.256;2024-01-30T09:47:41;17.48;;;12.05;;
48516;SDS011;34310;51.904;4.256;2024-01-30T09:50:09;16.35;;;11.32;;
48516;SDS011;34310;51.904;4.256;2024-01-30T09:52:36;14.30;;;11.05;;
48516;SDS011;34310;51.904;4.256;2024-01-30T09:55:04;15.55;;;11.23;;
48516;SDS011;34310;51.904;4.256;2024-01-30T09:57:31;14.20;;;10.25;;
48516;SDS011;34310;51.904;4.256;2024-01-30T09:59:58;14.38;;;10.90;;
48516;SDS011;34310;51.904;4.256;2024-01-30T10:02:24;15.45;;;11.13;;
48516;SDS011;34310;51.904;4.256;2024-01-30T10:04:51;14.32;;;10.43;;
48516;SDS011;34310;51.904;4.256;2024-01-30T10:07:18;16.35;;;10.27;;
48516;SDS011;34310;51.904;4.256;2024-01-30T10:09:46;14.80;;;10.45;;
48516;SDS011;34310;51.904;4.256;2024-01-30T10:12:13;13.10;;;9.82;;
48516;SDS011;34310;51.904;4.256;2024-01-30T10:14:39;12.18;;;8.95;;
48516;SDS011;34310;51.904;4.256;2024-01-30T10:17:07;13.93;;;9.45;;
48516;SDS011;34310;51.904;4.256;2024-01-30T10:19:47;12.90;;;9.18;;
48516;SDS011;34310;51.904;4.256;2024-01-30T10:22:13;12.63;;;9.10;;
48516;SDS011;34310;51.904;4.256;2024-01-30T10:24:40;12.00;;;8.80;;
48516;SDS011;34310;51.904;4.256;2024-01-30T10:27:07;11.98;;;8.68;;
48516;SDS011;34310;51.904;4.256;2024-01-30T10:29:33;11.73;;;8.25;;
48516;SDS011;34310;51.904;4.256;2024-01-30T10:32:04;12.35;;;8.75;;
48516;SDS011;34310;51.904;4.256;2024-01-30T10:34:32;10.70;;;7.78;;
48516;SDS011;34310;51.904;4.256;2024-01-30T10:39:35;11.18;;;8.10;;
48516;SDS011;34310;51.904;4.256;2024-01-30T10:42:05;9.77;;;7.35;;
48516;SDS011;34310;51.904;4.256;2024-01-30T10:47:27;10.43;;;7.15;;
48516;SDS011;34310;51.904;4.256;2024-01-30T10:49:55;11.05;;;7.22;;
48516;SDS011;34310;51.904;4.256;2024-01-30T10:52:23;9.32;;;6.80;;
48516;SDS011;34310;51.904;4.256;2024-01-30T10:54:50;11.38;;;6.57;;
48516;SDS011;34310;51.904;4.256;2024-01-30T10:57:17;10.95;;;6.65;;
48516;SDS011;34310;51.904;4.256;2024-01-30T10:59:44;8.73;;;6.47;;
48516;SDS011;34310;51.904;4.256;2024-01-30T11:02:11;9.75;;;6.40;;
48516;SDS011;34310;51.904;4.256;2024-01-30T11:04:40;9.68;;;6.90;;
48516;SDS011;34310;51.904;4.256;2024-01-30T11:07:17;9.45;;;6.22;;
48516;SDS011;34310;51.904;4.256;2024-01-30T11:09:51;10.60;;;6.50;;
48516;SDS011;34310;51.904;4.256;2024-01-30T11:12:22;7.68;;;6.03;;
48516;SDS011;34310;51.904;4.256;2024-01-30T11:14:50;8.15;;;6.43;;
48516;SDS011;34310;51.904;4.256;2024-01-30T11:20:20;8.60;;;5.85;;
48516;SDS011;34310;51.904;4.256;2024-01-30T11:22:52;10.23;;;6.35;;
48516;SDS011;34310;51.904;4.256;2024-01-30T11:25:21;9.90;;;6.78;;
48516;SDS011;34310;51.904;4.256;2024-01-30T11:27:51;9.80;;;6.63;;
48516;SDS011;34310;51.904;4.256;2024-01-30T11:30:29;10.30;;;6.85;;
48516;SDS011;34310;51.904;4.256;2024-01-30T11:33:07;9.95;;;6.78;;
48516;SDS011;34310;51.904;4.256;2024-01-30T11:35:37;10.70;;;6.85;;
48516;SDS011;34310;51.904;4.256;2024-01-30T11:38:08;10.40;;;6.63;;
48516;SDS011;34310;51.904;4.256;2024-01-30T11:40:37;9.70;;;6.95;;
48516;SDS011;34310;51.904;4.256;2024-01-30T11:43:05;9.15;;;6.78;;
48516;SDS011;34310;51.904;4.256;2024-01-30T11:45:34;10.43;;;7.30;;
48516;SDS011;34310;51.904;4.256;2024-01-30T11:48:01;9.25;;;6.55;;
48516;SDS011;34310;51.904;4.256;2024-01-30T11:50:32;11.07;;;7.20;;
48516;SDS011;34310;51.904;4.256;2024-01-30T11:53:00;9.93;;;6.72;;
48516;SDS011;34310;51.904;4.256;2024-01-30T11:55:28;10.32;;;7.32;;
48516;SDS011;34310;51.904;4.256;2024-01-30T11:58:00;12.15;;;7.35;;
48516;SDS011;34310;51.904;4.256;2024-01-30T12:00:27;11.48;;;7.82;;
48516;SDS011;34310;51.904;4.256;2024-01-30T12:02:54;9.95;;;7.00;;
48516;SDS011;34310;51.904;4.256;2024-01-30T12:05:22;10.68;;;7.55;;
48516;SDS011;34310;51.904;4.256;2024-01-30T12:07:49;11.00;;;7.50;;
48516;SDS011;34310;51.904;4.256;2024-01-30T12:10:16;10.55;;;7.45;;
48516;SDS011;34310;51.904;4.256;2024-01-30T12:12:43;11.70;;;7.88;;
48516;SDS011;34310;51.904;4.256;2024-01-30T12:15:12;11.48;;;7.43;;
48516;SDS011;34310;51.904;4.256;2024-01-30T12:17:40;10.77;;;8.13;;
48516;SDS011;34310;51.904;4.256;2024-01-30T12:20:08;10.48;;;7.22;;
48516;SDS011;34310;51.904;4.256;2024-01-30T12:22:36;11.18;;;7.93;;
48516;SDS011;34310;51.904;4.256;2024-01-30T12:25:07;12.85;;;7.95;;
48516;SDS011;34310;51.904;4.256;2024-01-30T12:27:35;10.32;;;7.20;;
48516;SDS011;34310;51.904;4.256;2024-01-30T12:30:06;11.15;;;7.68;;
48516;SDS011;34310;51.904;4.256;2024-01-30T12:32:37;10.25;;;7.25;;
48516;SDS011;34310;51.904;4.256;2024-01-30T12:35:12;11.13;;;7.53;;
48516;SDS011;34310;51.904;4.256;2024-01-30T12:37:41;11.02;;;7.65;;
48516;SDS011;34310;51.904;4.256;2024-01-30T12:40:09;12.00;;;7.65;;
48516;SDS011;34310;51.904;4.256;2024-01-30T12:42:37;10.82;;;7.63;;
48516;SDS011;34310;51.904;4.256;2024-01-30T12:45:04;10.98;;;7.75;;
48516;SDS011;34310;51.904;4.256;2024-01-30T12:47:31;11.88;;;8.15;;
48516;SDS011;34310;51.904;4.256;2024-01-30T12:49:58;11.63;;;8.00;;
48516;SDS011;34310;51.904;4.256;2024-01-30T12:52:25;11.82;;;7.85;;
48516;SDS011;34310;51.904;4.256;2024-01-30T12:54:52;11.30;;;7.93;;
48516;SDS011;34310;51.904;4.256;2024-01-30T12:57:19;10.98;;;8.02;;
48516;SDS011;34310;51.904;4.256;2024-01-30T12:59:45;12.80;;;7.85;;
48516;SDS011;34310;51.904;4.256;2024-01-30T13:02:13;11.07;;;7.85;;
48516;SDS011;34310;51.904;4.256;2024-01-30T13:04:40;12.20;;;8.10;;
48516;SDS011;34310;51.904;4.256;2024-01-30T13:07:08;10.15;;;7.07;;
48516;SDS011;34310;51.904;4.256;2024-01-30T13:09:34;11.75;;;8.18;;
48516;SDS011;34310;51.904;4.256;2024-01-30T13:12:01;13.60;;;7.90;;
48516;SDS011;34310;51.904;4.256;2024-01-30T13:14:27;11.52;;;7.78;;
48516;SDS011;34310;51.904;4.256;2024-01-30T13:16:54;11.70;;;7.70;;
48516;SDS011;34310;51.904;4.256;2024-01-30T13:19:21;12.20;;;8.40;;
48516;SDS011;34310;51.904;4.256;2024-01-30T13:21:48;12.85;;;8.45;;
48516;SDS011;34310;51.904;4.256;2024-01-30T13:24:14;13.50;;;8.48;;
48516;SDS011;34310;51.904;4.256;2024-01-30T13:26:42;11.68;;;8.10;;
48516;SDS011;34310;51.904;4.256;2024-01-30T13:29:09;13.27;;;8.30;;
48516;SDS011;34310;51.904;4.256;2024-01-30T13:31:35;12.13;;;8.50;;
48516;SDS011;34310;51.904;4.256;2024-01-30T13:34:02;12.48;;;8.52;;
48516;SDS011;34310;51.904;4.256;2024-01-30T13:36:33;12.05;;;8.27;;
48516;SDS011;34310;51.904;4.256;2024-01-30T13:38:59;11.70;;;8.25;;
48516;SDS011;34310;51.904;4.256;2024-01-30T13:41:26;12.82;;;8.35;;
48516;SDS011;34310;51.904;4.256;2024-01-30T13:43:52;13.85;;;8.70;;
48516;SDS011;34310;51.904;4.256;2024-01-30T13:46:19;12.93;;;7.82;;
48516;SDS011;34310;51.904;4.256;2024-01-30T13:48:46;11.68;;;8.48;;
48516;SDS011;34310;51.904;4.256;2024-01-30T13:51:12;11.88;;;8.45;;
48516;SDS011;34310;51.904;4.256;2024-01-30T13:53:39;13.23;;;9.20;;
48516;SDS011;34310;51.904;4.256;2024-01-30T13:56:06;12.25;;;8.20;;
48516;SDS011;34310;51.904;4.256;2024-01-30T13:58:32;13.55;;;9.27;;
48516;SDS011;34310;51.904;4.256;2024-01-30T14:00:59;14.68;;;8.55;;
48516;SDS011;34310;51.904;4.256;2024-01-30T14:03:26;13.00;;;9.10;;
48516;SDS011;34310;51.904;4.256;2024-01-30T14:05:52;12.80;;;9.32;;
48516;SDS011;34310;51.904;4.256;2024-01-30T14:08:19;12.90;;;8.80;;
48516;SDS011;34310;51.904;4.256;2024-01-30T14:10:46;12.65;;;8.65;;
48516;SDS011;34310;51.904;4.256;2024-01-30T14:13:13;12.52;;;8.38;;
48516;SDS011;34310;51.904;4.256;2024-01-30T14:15:39;15.40;;;9.43;;
48516;SDS011;34310;51.904;4.256;2024-01-30T14:18:06;12.77;;;8.45;;
48516;SDS011;34310;51.904;4.256;2024-01-30T14:20:33;13.07;;;9.00;;
48516;SDS011;34310;51.904;4.256;2024-01-30T14:22:59;13.10;;;8.57;;
48516;SDS011;34310;51.904;4.256;2024-01-30T14:25:26;13.77;;;9.25;;
48516;SDS011;34310;51.904;4.256;2024-01-30T14:27:52;14.07;;;9.02;;
48516;SDS011;34310;51.904;4.256;2024-01-30T14:30:19;14.70;;;10.30;;
48516;SDS011;34310;51.904;4.256;2024-01-30T14:32:46;15.40;;;9.48;;
48516;SDS011;34310;51.904;4.256;2024-01-30T14:35:12;13.18;;;9.25;;
48516;SDS011;34310;51.904;4.256;2024-01-30T14:37:39;13.80;;;9.13;;
48516;SDS011;34310;51.904;4.256;2024-01-30T14:40:06;14.68;;;9.75;;
48516;SDS011;34310;51.904;4.256;2024-01-30T14:42:33;13.57;;;9.32;;
48516;SDS011;34310;51.904;4.256;2024-01-30T14:45:00;14.15;;;9.55;;
48516;SDS011;34310;51.904;4.256;2024-01-30T14:47:28;12.60;;;9.13;;
48516;SDS011;34310;51.904;4.256;2024-01-30T14:49:55;14.43;;;9.70;;